sensor_id;sensor_type;location;lat;lon;timestamp;P1;durP1;ratioP1;P2;durP2;ratioP2
57303;SDS011;43150;50.986;18.208;2022-09-30T00:01:19;18.00;;;12.50;;
57303;SDS011;43150;50.986;18.208;2022-09-30T00:03:46;20.00;;;16.40;;
57303;SDS011;43150;50.986;18.208;2022-09-30T00:06:14;19.70;;;17.20;;
57303;SDS011;43150;50.986;18.208;2022-09-30T00:08:40;18.20;;;16.30;;
57303;SDS011;43150;50.986;18.208;2022-09-30T00:11:08;20.20;;;18.10;;
57303;SDS011;43150;50.986;18.208;2022-09-30T00:13:44;20.70;;;18.60;;
57303;SDS011;43150;50.986;18.208;2022-09-30T00:16:15;19.40;;;17.20;;
57303;SDS011;43150;50.986;18.208;2022-09-30T00:18:41;19.30;;;17.30;;
57303;SDS011;43150;50.986;18.208;2022-09-30T00:21:08;18.70;;;14.10;;
57303;SDS011;43150;50.986;18.208;2022-09-30T00:23:35;18.70;;;16.70;;
57303;SDS011;43150;50.986;18.208;2022-09-30T00:26:07;17.20;;;15.40;;
57303;SDS011;43150;50.986;18.208;2022-09-30T00:28:36;17.10;;;15.00;;
57303;SDS011;43150;50.986;18.208;2022-09-30T00:31:04;16.70;;;14.80;;
57303;SDS011;43150;50.986;18.208;2022-09-30T00:33:32;17.10;;;15.30;;
57303;SDS011;43150;50.986;18.208;2022-09-30T00:35:59;16.50;;;12.80;;
57303;SDS011;43150;50.986;18.208;2022-09-30T00:38:27;18.00;;;14.80;;
57303;SDS011;43150;50.986;18.208;2022-09-30T00:40:54;17.50;;;15.60;;
57303;SDS011;43150;50.986;18.208;2022-09-30T00:43:37;17.00;;;15.20;;
57303;SDS011;43150;50.986;18.208;2022-09-30T00:46:30;17.50;;;15.70;;
57303;SDS011;43150;50.986;18.208;2022-09-30T00:48:57;16.70;;;15.00;;
57303;SDS011;43150;50.986;18.208;2022-09-30T00:51:35;16.20;;;14.50;;
57303;SDS011;43150;50.986;18.208;2022-09-30T00:54:09;17.00;;;14.00;;
57303;SDS011;43150;50.986;18.208;2022-09-30T00:56:41;15.20;;;13.70;;
57303;SDS011;43150;50.986;18.208;2022-09-30T00:59:13;15.40;;;13.90;;
57303;SDS011;43150;50.986;18.208;2022-09-30T01:01:42;16.40;;;12.70;;
57303;SDS011;43150;50.986;18.208;2022-09-30T01:04:12;16.40;;;14.70;;
57303;SDS011;43150;50.986;18.208;2022-09-30T01:06:41;16.30;;;14.70;;
57303;SDS011;43150;50.986;18.208;2022-09-30T01:09:10;17.00;;;15.20;;
57303;SDS011;43150;50.986;18.208;2022-09-30T01:11:37;16.80;;;13.40;;
57303;SDS011;43150;50.986;18.208;2022-09-30T01:14:14;16.30;;;14.60;;
57303;SDS011;43150;50.986;18.208;2022-09-30T01:31:04;18.90;;;15.70;;
57303;SDS011;43150;50.986;18.208;2022-09-30T01:33:43;16.70;;;15.00;;
57303;SDS011;43150;50.986;18.208;2022-09-30T01:41:51;14.90;;;13.20;;
57303;SDS011;43150;50.986;18.208;2022-09-30T01:46:54;14.20;;;12.60;;
57303;SDS011;43150;50.986;18.208;2022-09-30T01:49:30;14.70;;;12.90;;
57303;SDS011;43150;50.986;18.208;2022-09-30T01:52:10;15.40;;;12.90;;
57303;SDS011;43150;50.986;18.208;2022-09-30T01:54:46;14.90;;;12.80;;
57303;SDS011;43150;50.986;18.208;2022-09-30T01:57:30;14.30;;;12.40;;
57303;SDS011;43150;50.986;18.208;2022-09-30T02:00:17;15.00;;;11.90;;
57303;SDS011;43150;50.986;18.208;2022-09-30T02:05:23;17.30;;;13.00;;
57303;SDS011;43150;50.986;18.208;2022-09-30T02:07:53;15.80;;;11.20;;
57303;SDS011;43150;50.986;18.208;2022-09-30T02:10:27;16.90;;;13.90;;
57303;SDS011;43150;50.986;18.208;2022-09-30T02:12:55;16.70;;;14.60;;
57303;SDS011;43150;50.986;18.208;2022-09-30T02:15:31;16.40;;;14.70;;
57303;SDS011;43150;50.986;18.208;2022-09-30T02:18:05;17.70;;;15.30;;
57303;SDS011;43150;50.986;18.208;2022-09-30T02:20:39;19.30;;;15.60;;
57303;SDS011;43150;50.986;18.208;2022-09-30T02:23:11;18.00;;;16.00;;
57303;SDS011;43150;50.986;18.208;2022-09-30T02:25:43;19.00;;;17.00;;
57303;SDS011;43150;50.986;18.208;2022-09-30T02:28:13;18.60;;;16.70;;
57303;SDS011;43150;50.986;18.208;2022-09-30T02:30:44;20.70;;;15.30;;
57303;SDS011;43150;50.986;18.208;2022-09-30T02:33:18;19.30;;;17.30;;
57303;SDS011;43150;50.986;18.208;2022-09-30T02:35:58;19.30;;;17.30;;
57303;SDS011;43150;50.986;18.208;2022-09-30T02:38:33;19.10;;;17.00;;
57303;SDS011;43150;50.986;18.208;2022-09-30T02:41:18;19.00;;;17.00;;
57303;SDS011;43150;50.986;18.208;2022-09-30T02:43:49;19.60;;;17.50;;
57303;SDS011;43150;50.986;18.208;2022-09-30T02:46:31;20.10;;;18.10;;
57303;SDS011;43150;50.986;18.208;2022-09-30T02:54:33;19.60;;;17.60;;
57303;SDS011;43150;50.986;18.208;2022-09-30T03:00:23;19.10;;;17.20;;
57303;SDS011;43150;50.986;18.208;2022-09-30T03:02:52;19.20;;;17.20;;
57303;SDS011;43150;50.986;18.208;2022-09-30T03:05:20;19.80;;;17.70;;
57303;SDS011;43150;50.986;18.208;2022-09-30T03:07:46;19.50;;;17.40;;
57303;SDS011;43150;50.986;18.208;2022-09-30T03:10:16;19.80;;;17.70;;
57303;SDS011;43150;50.986;18.208;2022-09-30T03:23:06;19.90;;;17.90;;
57303;SDS011;43150;50.986;18.208;2022-09-30T03:25:58;20.30;;;18.30;;
57303;SDS011;43150;50.986;18.208;2022-09-30T03:33:34;20.70;;;15.10;;
57303;SDS011;43150;50.986;18.208;2022-09-30T03:36:08;20.80;;;18.70;;
57303;SDS011;43150;50.986;18.208;2022-09-30T03:39:02;20.40;;;18.30;;
57303;SDS011;43150;50.986;18.208;2022-09-30T03:46:47;21.10;;;18.90;;
57303;SDS011;43150;50.986;18.208;2022-09-30T03:49:20;22.00;;;19.70;;
57303;SDS011;43150;50.986;18.208;2022-09-30T03:51:48;20.90;;;18.70;;
57303;SDS011;43150;50.986;18.208;2022-09-30T03:54:14;19.60;;;15.60;;
57303;SDS011;43150;50.986;18.208;2022-09-30T03:56:40;21.40;;;19.30;;
57303;SDS011;43150;50.986;18.208;2022-09-30T03:59:12;20.50;;;18.60;;
57303;SDS011;43150;50.986;18.208;2022-09-30T04:01:48;21.30;;;19.20;;
57303;SDS011;43150;50.986;18.208;2022-09-30T04:04:15;22.90;;;17.00;;
57303;SDS011;43150;50.986;18.208;2022-09-30T04:06:42;21.50;;;19.30;;
57303;SDS011;43150;50.986;18.208;2022-09-30T04:09:07;21.60;;;19.50;;
57303;SDS011;43150;50.986;18.208;2022-09-30T04:11:35;21.90;;;19.60;;
57303;SDS011;43150;50.986;18.208;2022-09-30T04:14:01;21.00;;;19.00;;
57303;SDS011;43150;50.986;18.208;2022-09-30T04:16:27;21.00;;;16.50;;
57303;SDS011;43150;50.986;18.208;2022-09-30T04:18:54;21.50;;;19.40;;
57303;SDS011;43150;50.986;18.208;2022-09-30T04:21:21;20.90;;;18.70;;
57303;SDS011;43150;50.986;18.208;2022-09-30T04:23:49;20.50;;;18.60;;
57303;SDS011;43150;50.986;18.208;2022-09-30T04:26:16;20.30;;;18.40;;
57303;SDS011;43150;50.986;18.208;2022-09-30T04:28:44;20.80;;;18.70;;
57303;SDS011;43150;50.986;18.208;2022-09-30T04:31:11;20.30;;;18.30;;
57303;SDS011;43150;50.986;18.208;2022-09-30T04:33:37;18.90;;;14.80;;
57303;SDS011;43150;50.986;18.208;2022-09-30T04:36:03;19.30;;;17.40;;
57303;SDS011;43150;50.986;18.208;2022-09-30T04:38:30;18.80;;;16.90;;
57303;SDS011;43150;50.986;18.208;2022-09-30T04:40:56;19.10;;;17.30;;
57303;SDS011;43150;50.986;18.208;2022-09-30T04:43:23;18.40;;;16.60;;
57303;SDS011;43150;50.986;18.208;2022-09-30T04:45:50;21.20;;;19.10;;
57303;SDS011;43150;50.986;18.208;2022-09-30T04:48:19;24.20;;;21.80;;
57303;SDS011;43150;50.986;18.208;2022-09-30T04:50:47;23.10;;;20.80;;
57303;SDS011;43150;50.986;18.208;2022-09-30T04:53:13;22.70;;;20.30;;
57303;SDS011;43150;50.986;18.208;2022-09-30T04:55:40;35.00;;;20.40;;
57303;SDS011;43150;50.986;18.208;2022-09-30T04:58:07;22.00;;;16.80;;
57303;SDS011;43150;50.986;18.208;2022-09-30T05:00:36;18.30;;;15.70;;
57303;SDS011;43150;50.986;18.208;2022-09-30T05:03:02;18.10;;;16.20;;
57303;SDS011;43150;50.986;18.208;2022-09-30T05:05:28;18.10;;;16.30;;
57303;SDS011;43150;50.986;18.208;2022-09-30T05:08:03;16.20;;;13.60;;
57303;SDS011;43150;50.986;18.208;2022-09-30T05:10:32;18.50;;;16.60;;
57303;SDS011;43150;50.986;18.208;2022-09-30T05:12:58;19.40;;;17.50;;
57303;SDS011;43150;50.986;18.208;2022-09-30T05:15:23;20.00;;;18.10;;
57303;SDS011;43150;50.986;18.208;2022-09-30T05:17:50;20.30;;;18.20;;
57303;SDS011;43150;50.986;18.208;2022-09-30T05:20:16;21.10;;;18.80;;
57303;SDS011;43150;50.986;18.208;2022-09-30T05:22:42;19.90;;;15.00;;
57303;SDS011;43150;50.986;18.208;2022-09-30T05:25:08;20.60;;;18.50;;
57303;SDS011;43150;50.986;18.208;2022-09-30T05:27:34;20.50;;;18.40;;
57303;SDS011;43150;50.986;18.208;2022-09-30T05:30:02;21.10;;;18.90;;
57303;SDS011;43150;50.986;18.208;2022-09-30T05:32:30;20.30;;;18.10;;
57303;SDS011;43150;50.986;18.208;2022-09-30T05:34:56;20.90;;;18.70;;
57303;SDS011;43150;50.986;18.208;2022-09-30T05:37:22;21.10;;;19.00;;
57303;SDS011;43150;50.986;18.208;2022-09-30T05:39:48;21.40;;;19.20;;
57303;SDS011;43150;50.986;18.208;2022-09-30T05:42:14;20.80;;;18.80;;
57303;SDS011;43150;50.986;18.208;2022-09-30T05:44:40;20.90;;;18.60;;
57303;SDS011;43150;50.986;18.208;2022-09-30T05:47:05;20.20;;;18.10;;
57303;SDS011;43150;50.986;18.208;2022-09-30T05:49:31;19.90;;;18.00;;
57303;SDS011;43150;50.986;18.208;2022-09-30T05:51:58;19.60;;;17.70;;
57303;SDS011;43150;50.986;18.208;2022-09-30T05:54:25;20.20;;;18.00;;
57303;SDS011;43150;50.986;18.208;2022-09-30T05:56:50;19.90;;;17.80;;
57303;SDS011;43150;50.986;18.208;2022-09-30T05:59:16;18.60;;;14.90;;
57303;SDS011;43150;50.986;18.208;2022-09-30T06:01:45;20.40;;;17.70;;
57303;SDS011;43150;50.986;18.208;2022-09-30T06:04:13;19.10;;;17.10;;
57303;SDS011;43150;50.986;18.208;2022-09-30T06:06:38;19.80;;;15.70;;
57303;SDS011;43150;50.986;18.208;2022-09-30T06:09:05;19.90;;;17.80;;
57303;SDS011;43150;50.986;18.208;2022-09-30T06:11:31;19.30;;;17.30;;
57303;SDS011;43150;50.986;18.208;2022-09-30T06:13:56;19.30;;;17.40;;
57303;SDS011;43150;50.986;18.208;2022-09-30T06:16:22;19.60;;;17.60;;
57303;SDS011;43150;50.986;18.208;2022-09-30T06:18:50;18.90;;;17.10;;
57303;SDS011;43150;50.986;18.208;2022-09-30T06:21:19;19.80;;;17.80;;
57303;SDS011;43150;50.986;18.208;2022-09-30T06:23:47;19.80;;;17.60;;
57303;SDS011;43150;50.986;18.208;2022-09-30T06:26:13;17.50;;;13.90;;
57303;SDS011;43150;50.986;18.208;2022-09-30T06:28:39;19.30;;;17.30;;
57303;SDS011;43150;50.986;18.208;2022-09-30T06:31:05;18.60;;;16.80;;
57303;SDS011;43150;50.986;18.208;2022-09-30T06:33:32;19.60;;;17.50;;
57303;SDS011;43150;50.986;18.208;2022-09-30T06:35:58;18.70;;;16.90;;
57303;SDS011;43150;50.986;18.208;2022-09-30T06:38:32;19.00;;;17.20;;
57303;SDS011;43150;50.986;18.208;2022-09-30T06:41:01;18.70;;;16.90;;
57303;SDS011;43150;50.986;18.208;2022-09-30T06:43:27;19.60;;;17.60;;
57303;SDS011;43150;50.986;18.208;2022-09-30T06:45:56;18.90;;;17.00;;
57303;SDS011;43150;50.986;18.208;2022-09-30T06:48:21;18.40;;;16.60;;
57303;SDS011;43150;50.986;18.208;2022-09-30T06:50:47;18.80;;;16.90;;
57303;SDS011;43150;50.986;18.208;2022-09-30T06:53:13;18.50;;;16.60;;
57303;SDS011;43150;50.986;18.208;2022-09-30T06:55:39;18.50;;;16.70;;
57303;SDS011;43150;50.986;18.208;2022-09-30T06:58:06;18.30;;;16.50;;
57303;SDS011;43150;50.986;18.208;2022-09-30T07:00:35;18.40;;;16.50;;
57303;SDS011;43150;50.986;18.208;2022-09-30T07:03:18;19.40;;;16.50;;
57303;SDS011;43150;50.986;18.208;2022-09-30T07:05:55;18.40;;;16.50;;
57303;SDS011;43150;50.986;18.208;2022-09-30T07:08:25;17.40;;;15.80;;
57303;SDS011;43150;50.986;18.208;2022-09-30T07:10:59;17.80;;;16.10;;
57303;SDS011;43150;50.986;18.208;2022-09-30T07:13:26;17.60;;;15.80;;
57303;SDS011;43150;50.986;18.208;2022-09-30T07:15:57;17.60;;;15.80;;
57303;SDS011;43150;50.986;18.208;2022-09-30T07:18:23;17.60;;;15.90;;
57303;SDS011;43150;50.986;18.208;2022-09-30T07:20:49;16.80;;;15.00;;
57303;SDS011;43150;50.986;18.208;2022-09-30T07:23:16;17.50;;;15.70;;
57303;SDS011;43150;50.986;18.208;2022-09-30T07:25:48;18.60;;;15.20;;
57303;SDS011;43150;50.986;18.208;2022-09-30T07:28:18;16.30;;;14.60;;
57303;SDS011;43150;50.986;18.208;2022-09-30T07:30:52;16.20;;;14.60;;
57303;SDS011;43150;50.986;18.208;2022-09-30T07:33:21;16.30;;;14.60;;
57303;SDS011;43150;50.986;18.208;2022-09-30T07:35:49;16.30;;;14.50;;
57303;SDS011;43150;50.986;18.208;2022-09-30T07:38:15;15.10;;;13.40;;
57303;SDS011;43150;50.986;18.208;2022-09-30T07:40:49;16.30;;;14.60;;
57303;SDS011;43150;50.986;18.208;2022-09-30T07:43:17;16.20;;;14.60;;
57303;SDS011;43150;50.986;18.208;2022-09-30T07:45:46;15.90;;;14.50;;
57303;SDS011;43150;50.986;18.208;2022-09-30T07:48:13;15.40;;;13.90;;
57303;SDS011;43150;50.986;18.208;2022-09-30T07:50:58;15.60;;;14.10;;
57303;SDS011;43150;50.986;18.208;2022-09-30T07:53:25;15.70;;;14.20;;
57303;SDS011;43150;50.986;18.208;2022-09-30T07:55:51;16.50;;;14.90;;
57303;SDS011;43150;50.986;18.208;2022-09-30T07:58:16;15.90;;;14.50;;
57303;SDS011;43150;50.986;18.208;2022-09-30T08:00:42;15.40;;;13.80;;
57303;SDS011;43150;50.986;18.208;2022-09-30T08:03:08;15.30;;;13.90;;
57303;SDS011;43150;50.986;18.208;2022-09-30T08:05:40;16.20;;;14.70;;
57303;SDS011;43150;50.986;18.208;2022-09-30T08:08:10;16.30;;;14.80;;
57303;SDS011;43150;50.986;18.208;2022-09-30T08:10:37;15.20;;;13.60;;
57303;SDS011;43150;50.986;18.208;2022-09-30T08:13:03;15.20;;;13.90;;
57303;SDS011;43150;50.986;18.208;2022-09-30T08:15:29;16.50;;;15.10;;
57303;SDS011;43150;50.986;18.208;2022-09-30T08:17:54;17.40;;;15.90;;
57303;SDS011;43150;50.986;18.208;2022-09-30T08:20:20;18.10;;;16.40;;
57303;SDS011;43150;50.986;18.208;2022-09-30T08:22:45;18.10;;;16.50;;
57303;SDS011;43150;50.986;18.208;2022-09-30T08:25:11;19.10;;;17.30;;
57303;SDS011;43150;50.986;18.208;2022-09-30T08:27:37;18.20;;;16.60;;
57303;SDS011;43150;50.986;18.208;2022-09-30T08:30:03;17.20;;;15.60;;
57303;SDS011;43150;50.986;18.208;2022-09-30T08:32:30;16.80;;;15.30;;
57303;SDS011;43150;50.986;18.208;2022-09-30T08:34:56;16.80;;;15.10;;
57303;SDS011;43150;50.986;18.208;2022-09-30T08:37:26;15.80;;;14.20;;
57303;SDS011;43150;50.986;18.208;2022-09-30T08:39:51;17.40;;;15.80;;
57303;SDS011;43150;50.986;18.208;2022-09-30T08:50:30;16.70;;;15.10;;
57303;SDS011;43150;50.986;18.208;2022-09-30T08:53:06;16.40;;;14.70;;
57303;SDS011;43150;50.986;18.208;2022-09-30T08:55:38;15.70;;;14.20;;
57303;SDS011;43150;50.986;18.208;2022-09-30T08:58:42;15.20;;;13.80;;
57303;SDS011;43150;50.986;18.208;2022-09-30T09:03:42;15.20;;;13.80;;
57303;SDS011;43150;50.986;18.208;2022-09-30T09:17:22;14.60;;;13.20;;
57303;SDS011;43150;50.986;18.208;2022-09-30T09:22:39;14.10;;;12.60;;
57303;SDS011;43150;50.986;18.208;2022-09-30T09:25:10;14.10;;;12.70;;
57303;SDS011;43150;50.986;18.208;2022-09-30T09:30:16;12.00;;;10.90;;
57303;SDS011;43150;50.986;18.208;2022-09-30T09:32:45;14.60;;;12.40;;
57303;SDS011;43150;50.986;18.208;2022-09-30T09:35:21;12.80;;;11.20;;
57303;SDS011;43150;50.986;18.208;2022-09-30T09:46:45;13.00;;;11.70;;
57303;SDS011;43150;50.986;18.208;2022-09-30T09:51:47;13.00;;;11.70;;
57303;SDS011;43150;50.986;18.208;2022-09-30T09:54:52;12.70;;;11.40;;
57303;SDS011;43150;50.986;18.208;2022-09-30T09:57:22;12.90;;;11.70;;
57303;SDS011;43150;50.986;18.208;2022-09-30T10:02:31;12.20;;;11.10;;
57303;SDS011;43150;50.986;18.208;2022-09-30T10:04:57;11.70;;;10.60;;
57303;SDS011;43150;50.986;18.208;2022-09-30T10:07:28;12.70;;;11.40;;
57303;SDS011;43150;50.986;18.208;2022-09-30T10:12:41;13.30;;;11.90;;
57303;SDS011;43150;50.986;18.208;2022-09-30T10:15:23;13.00;;;11.80;;
57303;SDS011;43150;50.986;18.208;2022-09-30T10:17:54;12.10;;;10.90;;
57303;SDS011;43150;50.986;18.208;2022-09-30T10:20:29;11.30;;;10.20;;
57303;SDS011;43150;50.986;18.208;2022-09-30T10:23:07;11.00;;;9.90;;
57303;SDS011;43150;50.986;18.208;2022-09-30T10:25:35;11.80;;;10.60;;
57303;SDS011;43150;50.986;18.208;2022-09-30T10:28:02;12.20;;;11.00;;
57303;SDS011;43150;50.986;18.208;2022-09-30T10:30:35;12.50;;;11.20;;
57303;SDS011;43150;50.986;18.208;2022-09-30T10:39:04;12.90;;;11.70;;
57303;SDS011;43150;50.986;18.208;2022-09-30T10:41:33;11.90;;;10.80;;
57303;SDS011;43150;50.986;18.208;2022-09-30T10:44:01;11.40;;;10.30;;
57303;SDS011;43150;50.986;18.208;2022-09-30T10:46:30;11.20;;;10.10;;
57303;SDS011;43150;50.986;18.208;2022-09-30T10:49:06;11.40;;;10.30;;
57303;SDS011;43150;50.986;18.208;2022-09-30T10:51:35;11.10;;;10.00;;
57303;SDS011;43150;50.986;18.208;2022-09-30T10:54:01;10.20;;;9.20;;
57303;SDS011;43150;50.986;18.208;2022-09-30T10:56:38;10.30;;;9.30;;
57303;SDS011;43150;50.986;18.208;2022-09-30T10:59:13;10.30;;;9.30;;
57303;SDS011;43150;50.986;18.208;2022-09-30T11:01:53;9.80;;;8.90;;
57303;SDS011;43150;50.986;18.208;2022-09-30T11:10:20;11.00;;;9.10;;
57303;SDS011;43150;50.986;18.208;2022-09-30T11:12:59;9.40;;;8.50;;
57303;SDS011;43150;50.986;18.208;2022-09-30T11:15:31;9.70;;;8.60;;
57303;SDS011;43150;50.986;18.208;2022-09-30T11:18:55;10.40;;;9.20;;
57303;SDS011;43150;50.986;18.208;2022-09-30T11:21:19;9.40;;;8.40;;
57303;SDS011;43150;50.986;18.208;2022-09-30T11:23:50;9.50;;;8.60;;
57303;SDS011;43150;50.986;18.208;2022-09-30T11:44:45;11.50;;;10.40;;
57303;SDS011;43150;50.986;18.208;2022-09-30T11:55:49;13.50;;;12.20;;
57303;SDS011;43150;50.986;18.208;2022-09-30T11:58:23;11.50;;;10.40;;
57303;SDS011;43150;50.986;18.208;2022-09-30T12:00:54;11.30;;;10.10;;
57303;SDS011;43150;50.986;18.208;2022-09-30T12:03:35;10.20;;;9.20;;
57303;SDS011;43150;50.986;18.208;2022-09-30T12:06:09;10.70;;;9.60;;
57303;SDS011;43150;50.986;18.208;2022-09-30T12:08:47;12.10;;;10.20;;
57303;SDS011;43150;50.986;18.208;2022-09-30T12:11:20;9.90;;;8.90;;
57303;SDS011;43150;50.986;18.208;2022-09-30T12:14:14;9.60;;;8.00;;
57303;SDS011;43150;50.986;18.208;2022-09-30T12:16:44;9.60;;;8.30;;
57303;SDS011;43150;50.986;18.208;2022-09-30T12:19:15;10.60;;;9.50;;
57303;SDS011;43150;50.986;18.208;2022-09-30T12:21:56;11.20;;;10.10;;
57303;SDS011;43150;50.986;18.208;2022-09-30T12:27:02;12.60;;;9.30;;
57303;SDS011;43150;50.986;18.208;2022-09-30T12:29:32;10.10;;;9.10;;
57303;SDS011;43150;50.986;18.208;2022-09-30T12:32:35;10.00;;;9.00;;
57303;SDS011;43150;50.986;18.208;2022-09-30T12:48:55;10.30;;;9.10;;
57303;SDS011;43150;50.986;18.208;2022-09-30T12:53:54;12.40;;;9.30;;
57303;SDS011;43150;50.986;18.208;2022-09-30T12:56:27;9.80;;;8.80;;
57303;SDS011;43150;50.986;18.208;2022-09-30T12:58:54;11.40;;;9.80;;
57303;SDS011;43150;50.986;18.208;2022-09-30T13:01:23;11.50;;;10.30;;
57303;SDS011;43150;50.986;18.208;2022-09-30T13:06:21;9.40;;;8.30;;
57303;SDS011;43150;50.986;18.208;2022-09-30T13:09:05;10.40;;;7.90;;
57303;SDS011;43150;50.986;18.208;2022-09-30T13:14:23;9.80;;;8.70;;
57303;SDS011;43150;50.986;18.208;2022-09-30T13:19:45;9.90;;;8.40;;
57303;SDS011;43150;50.986;18.208;2022-09-30T13:32:42;8.60;;;7.70;;
57303;SDS011;43150;50.986;18.208;2022-09-30T13:40:47;10.50;;;8.70;;
57303;SDS011;43150;50.986;18.208;2022-09-30T13:45:53;8.50;;;7.40;;
57303;SDS011;43150;50.986;18.208;2022-09-30T13:48:21;8.10;;;7.40;;
57303;SDS011;43150;50.986;18.208;2022-09-30T13:50:55;10.40;;;8.20;;
57303;SDS011;43150;50.986;18.208;2022-09-30T13:53:31;10.40;;;8.50;;
57303;SDS011;43150;50.986;18.208;2022-09-30T13:56:05;11.50;;;9.30;;
57303;SDS011;43150;50.986;18.208;2022-09-30T14:01:22;10.40;;;8.40;;
57303;SDS011;43150;50.986;18.208;2022-09-30T14:09:49;12.00;;;8.00;;
57303;SDS011;43150;50.986;18.208;2022-09-30T14:15:29;10.60;;;7.90;;
57303;SDS011;43150;50.986;18.208;2022-09-30T14:20:57;12.70;;;10.40;;
57303;SDS011;43150;50.986;18.208;2022-09-30T14:23:55;12.50;;;10.20;;
57303;SDS011;43150;50.986;18.208;2022-09-30T14:29:43;7.90;;;6.20;;
57303;SDS011;43150;50.986;18.208;2022-09-30T14:35:12;8.40;;;6.90;;
57303;SDS011;43150;50.986;18.208;2022-09-30T14:37:46;8.70;;;7.20;;
57303;SDS011;43150;50.986;18.208;2022-09-30T14:40:15;10.20;;;8.40;;
57303;SDS011;43150;50.986;18.208;2022-09-30T14:42:42;8.60;;;6.40;;
57303;SDS011;43150;50.986;18.208;2022-09-30T14:45:26;8.00;;;5.40;;
57303;SDS011;43150;50.986;18.208;2022-09-30T14:47:56;7.00;;;5.90;;
57303;SDS011;43150;50.986;18.208;2022-09-30T14:50:29;8.20;;;5.80;;
57303;SDS011;43150;50.986;18.208;2022-09-30T14:53:00;7.00;;;5.60;;
57303;SDS011;43150;50.986;18.208;2022-09-30T15:00:59;7.60;;;6.10;;
57303;SDS011;43150;50.986;18.208;2022-09-30T15:03:31;8.90;;;7.60;;
57303;SDS011;43150;50.986;18.208;2022-09-30T15:06:00;9.00;;;7.00;;
57303;SDS011;43150;50.986;18.208;2022-09-30T15:08:26;8.40;;;7.40;;
57303;SDS011;43150;50.986;18.208;2022-09-30T15:10:53;8.90;;;7.50;;
57303;SDS011;43150;50.986;18.208;2022-09-30T15:13:27;11.50;;;10.20;;
57303;SDS011;43150;50.986;18.208;2022-09-30T15:15:59;11.90;;;10.40;;
57303;SDS011;43150;50.986;18.208;2022-09-30T15:18:51;12.00;;;9.90;;
57303;SDS011;43150;50.986;18.208;2022-09-30T15:21:18;10.70;;;9.00;;
57303;SDS011;43150;50.986;18.208;2022-09-30T15:23:46;8.90;;;7.90;;
57303;SDS011;43150;50.986;18.208;2022-09-30T15:26:18;9.20;;;8.30;;
57303;SDS011;43150;50.986;18.208;2022-09-30T15:28:48;6.70;;;5.60;;
57303;SDS011;43150;50.986;18.208;2022-09-30T15:31:21;11.10;;;9.90;;
57303;SDS011;43150;50.986;18.208;2022-09-30T15:33:59;10.00;;;8.90;;
57303;SDS011;43150;50.986;18.208;2022-09-30T15:36:38;10.90;;;9.50;;
57303;SDS011;43150;50.986;18.208;2022-09-30T15:39:05;10.30;;;8.90;;
57303;SDS011;43150;50.986;18.208;2022-09-30T15:41:38;8.80;;;7.40;;
57303;SDS011;43150;50.986;18.208;2022-09-30T15:44:04;11.20;;;10.00;;
57303;SDS011;43150;50.986;18.208;2022-09-30T15:46:40;13.10;;;11.70;;
57303;SDS011;43150;50.986;18.208;2022-09-30T15:49:32;11.00;;;9.90;;
57303;SDS011;43150;50.986;18.208;2022-09-30T15:54:52;10.50;;;9.10;;
57303;SDS011;43150;50.986;18.208;2022-09-30T16:05:38;9.90;;;8.70;;
57303;SDS011;43150;50.986;18.208;2022-09-30T16:08:06;12.00;;;10.70;;
57303;SDS011;43150;50.986;18.208;2022-09-30T16:10:39;11.90;;;8.50;;
57303;SDS011;43150;50.986;18.208;2022-09-30T16:13:05;14.90;;;12.90;;
57303;SDS011;43150;50.986;18.208;2022-09-30T16:15:34;13.20;;;11.90;;
57303;SDS011;43150;50.986;18.208;2022-09-30T16:18:03;13.00;;;11.70;;
57303;SDS011;43150;50.986;18.208;2022-09-30T16:20:29;11.60;;;10.40;;
57303;SDS011;43150;50.986;18.208;2022-09-30T16:22:55;8.80;;;7.90;;
57303;SDS011;43150;50.986;18.208;2022-09-30T16:25:25;13.90;;;12.50;;
57303;SDS011;43150;50.986;18.208;2022-09-30T16:28:15;13.60;;;12.20;;
57303;SDS011;43150;50.986;18.208;2022-09-30T16:30:42;12.30;;;11.00;;
57303;SDS011;43150;50.986;18.208;2022-09-30T16:33:13;10.90;;;9.90;;
57303;SDS011;43150;50.986;18.208;2022-09-30T16:35:40;12.70;;;11.40;;
57303;SDS011;43150;50.986;18.208;2022-09-30T16:38:09;11.70;;;10.40;;
57303;SDS011;43150;50.986;18.208;2022-09-30T16:40:38;11.10;;;9.60;;
57303;SDS011;43150;50.986;18.208;2022-09-30T16:43:07;8.30;;;7.00;;
57303;SDS011;43150;50.986;18.208;2022-09-30T16:45:36;8.80;;;7.30;;
57303;SDS011;43150;50.986;18.208;2022-09-30T16:48:10;7.80;;;6.40;;
57303;SDS011;43150;50.986;18.208;2022-09-30T16:53:16;7.90;;;7.10;;
57303;SDS011;43150;50.986;18.208;2022-09-30T16:55:41;7.40;;;6.50;;
57303;SDS011;43150;50.986;18.208;2022-09-30T16:58:09;6.50;;;5.80;;
57303;SDS011;43150;50.986;18.208;2022-09-30T17:00:36;9.60;;;8.50;;
57303;SDS011;43150;50.986;18.208;2022-09-30T17:03:02;8.90;;;8.00;;
57303;SDS011;43150;50.986;18.208;2022-09-30T17:05:28;8.60;;;7.70;;
57303;SDS011;43150;50.986;18.208;2022-09-30T17:07:57;8.50;;;7.70;;
57303;SDS011;43150;50.986;18.208;2022-09-30T17:10:28;7.70;;;6.90;;
57303;SDS011;43150;50.986;18.208;2022-09-30T17:12:55;9.20;;;8.00;;
57303;SDS011;43150;50.986;18.208;2022-09-30T17:15:24;11.80;;;10.60;;
57303;SDS011;43150;50.986;18.208;2022-09-30T17:17:52;12.70;;;11.00;;
57303;SDS011;43150;50.986;18.208;2022-09-30T17:20:18;10.10;;;9.10;;
57303;SDS011;43150;50.986;18.208;2022-09-30T17:22:46;9.00;;;8.10;;
57303;SDS011;43150;50.986;18.208;2022-09-30T17:25:12;7.70;;;7.00;;
57303;SDS011;43150;50.986;18.208;2022-09-30T17:27:39;8.60;;;7.70;;
57303;SDS011;43150;50.986;18.208;2022-09-30T17:30:06;12.10;;;10.60;;
57303;SDS011;43150;50.986;18.208;2022-09-30T17:32:33;15.10;;;13.10;;
57303;SDS011;43150;50.986;18.208;2022-09-30T17:35:02;13.70;;;12.30;;
57303;SDS011;43150;50.986;18.208;2022-09-30T17:37:32;10.80;;;9.70;;
57303;SDS011;43150;50.986;18.208;2022-09-30T17:39:59;13.30;;;11.90;;
57303;SDS011;43150;50.986;18.208;2022-09-30T17:42:48;15.60;;;13.60;;
57303;SDS011;43150;50.986;18.208;2022-09-30T17:45:33;17.30;;;15.50;;
57303;SDS011;43150;50.986;18.208;2022-09-30T17:48:00;13.00;;;11.70;;
57303;SDS011;43150;50.986;18.208;2022-09-30T17:50:25;13.50;;;12.10;;
57303;SDS011;43150;50.986;18.208;2022-09-30T17:52:52;10.60;;;9.60;;
57303;SDS011;43150;50.986;18.208;2022-09-30T17:55:22;14.60;;;13.10;;
57303;SDS011;43150;50.986;18.208;2022-09-30T17:57:47;10.80;;;9.70;;
57303;SDS011;43150;50.986;18.208;2022-09-30T18:00:15;12.10;;;10.90;;
57303;SDS011;43150;50.986;18.208;2022-09-30T18:02:41;11.30;;;10.20;;
57303;SDS011;43150;50.986;18.208;2022-09-30T18:05:10;11.30;;;10.20;;
57303;SDS011;43150;50.986;18.208;2022-09-30T18:07:36;10.20;;;9.20;;
57303;SDS011;43150;50.986;18.208;2022-09-30T18:10:02;9.10;;;8.10;;
57303;SDS011;43150;50.986;18.208;2022-09-30T18:12:28;9.60;;;8.60;;
57303;SDS011;43150;50.986;18.208;2022-09-30T18:14:54;9.70;;;8.70;;
57303;SDS011;43150;50.986;18.208;2022-09-30T18:17:20;10.10;;;7.70;;